< Typhoon 202204 2022 Season Typhoon 202206 >
Typhoon 202205 (SONGDA)
General InformationTrack Information on Google MapsDetailed Wind InformationForecast History on Google MapsAccess Analytics MapList of All Images || NewsDisaster Info.JMA Disaster Info. XMLWeblogTrackbackTyphoon FrontTwiphoonTyphoon Now!Typhoon ImaginationResourceGoogle EarthGE AnimationAtom FeedGeoJSON
Detalied Best Track (Time Zone = UTC)
Year Month Day Hour Lat. Long. Pressure (hPa) Wind (kt) Class Image Chart
2022 7 26 12 14.9 143.3 1006 0 2 Image Chart
2022 7 26 18 15.0 143.0 1004 0 2 Image Chart
2022 7 27 00 15.3 142.6 1004 0 2 Image Chart
2022 7 27 06 16.0 141.9 1004 0 2 Image Chart
2022 7 27 12 17.4 141.0 1004 0 2 Image Chart
2022 7 27 18 18.4 140.8 1002 0 2 Image Chart
2022 7 28 00 19.4 140.3 1002 0 2 Image Chart
2022 7 28 06 20.6 139.9 1002 0 2 Image Chart
2022 7 28 12 22.5 139.0 1002 35 3 Image Chart
2022 7 28 18 25.3 137.7 1002 35 3 Image Chart
2022 7 29 00 28.0 135.0 1002 35 3 Image Chart
2022 7 29 06 29.1 132.1 1002 35 3 Image Chart
2022 7 29 12 30.1 129.9 1000 40 3 Image Chart
2022 7 29 18 30.7 128.5 1000 35 3 Image Chart
2022 7 30 00 31.4 126.2 1000 35 3 Image Chart
2022 7 30 06 32.0 124.9 998 35 3 Image Chart
2022 7 30 12 32.8 124.2 998 35 3 Image Chart
2022 7 30 18 33.4 123.3 998 35 3 Image Chart
2022 7 31 00 33.5 123.1 996 35 3 Image Chart
2022 7 31 06 33.9 123.2 996 35 3 Image Chart
2022 7 31 12 34.5 123.1 996 35 3 Image Chart
2022 7 31 18 34.9 123.1 998 0 2 Image Chart
2022 8 1 00 35.2 123.2 1000 0 2 Image Chart
2022 8 1 06 35.3 123.3 1000 0 2 Image Chart
Japan Meteorological Agency Best Track Data | Correction Date : 2022-10-07
< Typhoon 202204 2022 Season Typhoon 202206 >

Help